createdAt,value
2023-04-21T00:01:31.477Z,29.20
2023-04-21T00:04:03.230Z,29.35
2023-04-21T00:06:34.685Z,34.42
2023-04-21T00:09:06.979Z,39.83
2023-04-21T00:11:38.985Z,37.58
2023-04-21T00:14:10.498Z,36.85
2023-04-21T00:16:42.050Z,25.80
2023-04-21T00:19:15.268Z,46.25
2023-04-21T00:21:46.760Z,46.20
2023-04-21T00:24:17.964Z,39.67
2023-04-21T00:26:49.062Z,39.03
2023-04-21T00:29:20.795Z,36.60
2023-04-21T00:31:52.102Z,47.95
2023-04-21T00:34:23.288Z,31.35
2023-04-21T00:36:56.144Z,23.92
2023-04-21T00:39:27.645Z,41.13
2023-04-21T00:41:58.950Z,41.78
2023-04-21T00:44:30.168Z,35.13
2023-04-21T00:47:02.807Z,16.30
2023-04-21T00:49:34.614Z,48.25
2023-04-21T00:52:09.774Z,50.45
2023-04-21T00:54:41.557Z,45.40
2023-04-21T00:57:14.225Z,45.25
2023-04-21T00:59:46.688Z,47.47
2023-04-21T01:02:19.448Z,42.35
2023-04-21T01:07:22.691Z,34.40
2023-04-21T01:09:53.924Z,37.42
2023-04-21T01:12:25.414Z,37.05
2023-04-21T01:14:56.757Z,45.00
2023-04-21T01:17:28.734Z,43.08
2023-04-21T01:20:04.067Z,43.13
2023-04-21T01:22:41.161Z,44.08
2023-04-21T01:25:12.794Z,38.97
2023-04-21T01:27:48.046Z,43.08
2023-04-21T01:30:19.308Z,38.05
2023-04-21T01:32:50.580Z,34.63
2023-04-21T01:35:22.045Z,34.00
2023-04-21T01:38:13.004Z,28.88
2023-04-21T01:40:44.625Z,33.38
2023-04-21T01:43:17.814Z,25.48
2023-04-21T01:45:50.168Z,35.92
2023-04-21T01:48:21.890Z,29.85
2023-04-21T01:50:55.832Z,29.00
2023-04-21T01:53:28.789Z,29.50
2023-04-21T01:56:00.356Z,28.00
2023-04-21T01:58:33.564Z,25.92
2023-04-21T02:01:08.036Z,30.33
2023-04-21T02:03:39.981Z,26.58
2023-04-21T02:06:12.282Z,27.02
2023-04-21T02:08:44.334Z,25.15
2023-04-21T02:11:33.763Z,26.63
2023-04-21T02:14:05.447Z,17.38
2023-04-21T02:16:36.787Z,23.55
2023-04-21T02:19:07.960Z,27.98
2023-04-21T02:21:39.468Z,26.35
2023-04-21T02:24:11.055Z,25.20
2023-04-21T02:26:42.592Z,20.98
2023-04-21T02:29:13.918Z,27.67
2023-04-21T02:31:57.889Z,23.35
2023-04-21T02:34:36.219Z,18.88
2023-04-21T02:37:08.666Z,25.45
2023-04-21T02:39:40.153Z,21.77
2023-04-21T02:42:11.540Z,22.90
2023-04-21T02:45:02.394Z,24.02
2023-04-21T02:47:33.600Z,22.30
2023-04-21T02:50:06.071Z,26.05
2023-04-21T02:52:40.695Z,24.83
2023-04-21T02:55:32.032Z,27.13
2023-04-21T02:58:03.266Z,23.70
2023-04-21T03:00:55.148Z,25.70
2023-04-21T03:03:26.697Z,23.15
2023-04-21T03:06:02.276Z,25.67
2023-04-21T03:08:34.067Z,26.90
2023-04-21T03:11:05.294Z,23.23
2023-04-21T03:13:37.011Z,28.00
2023-04-21T03:16:08.614Z,24.30
2023-04-21T03:18:40.152Z,24.60
2023-04-21T03:21:12.488Z,26.25
2023-04-21T03:23:44.817Z,23.48
2023-04-21T03:26:16.829Z,27.25
2023-04-21T03:28:49.492Z,27.38
2023-04-21T03:31:25.578Z,29.65
2023-04-21T03:33:56.930Z,31.88
2023-04-21T03:36:28.621Z,31.23
2023-04-21T03:39:19.835Z,27.63
2023-04-21T03:41:53.634Z,35.60
2023-04-21T03:44:27.209Z,36.78
2023-04-21T03:46:59.337Z,35.50
2023-04-21T03:52:17.396Z,30.17
2023-04-21T03:54:51.817Z,38.55
2023-04-21T03:57:24.372Z,36.55
2023-04-21T03:59:56.053Z,38.28
2023-04-21T04:02:27.875Z,36.70
2023-04-21T04:05:01.084Z,40.33
2023-04-21T04:07:33.921Z,42.53
2023-04-21T04:10:12.523Z,45.20
2023-04-21T04:13:05.297Z,47.45
2023-04-21T04:18:21.111Z,44.22
2023-04-21T04:20:53.519Z,62.72
2023-04-21T04:23:35.404Z,47.28
2023-04-21T04:26:13.348Z,47.92
2023-04-21T04:28:45.084Z,48.78
2023-04-21T04:31:16.995Z,47.70
2023-04-21T04:33:48.356Z,53.20
2023-04-21T04:36:20.426Z,45.83
2023-04-21T04:38:52.159Z,46.55
2023-04-21T04:41:24.231Z,52.20
2023-04-21T04:43:55.481Z,54.03
2023-04-21T04:46:29.156Z,54.25
2023-04-21T04:49:01.114Z,51.30
2023-04-21T04:51:34.175Z,55.40
2023-04-21T04:54:26.239Z,47.83
2023-04-21T04:56:59.306Z,52.80
2023-04-21T04:59:32.112Z,48.20
2023-04-21T05:02:03.405Z,48.58
2023-04-21T05:04:37.288Z,51.10
2023-04-21T05:07:15.692Z,56.25
2023-04-21T05:09:47.911Z,53.28
2023-04-21T05:12:22.568Z,52.55
2023-04-21T05:15:15.198Z,49.92
2023-04-21T05:18:10.745Z,51.40
2023-04-21T05:20:49.424Z,52.88
2023-04-21T05:23:42.730Z,50.88
2023-04-21T05:26:13.966Z,50.53
2023-04-21T05:28:47.297Z,52.80
2023-04-21T05:31:19.379Z,44.95
2023-04-21T05:34:11.797Z,51.10
2023-04-21T05:36:46.169Z,48.25
2023-04-21T05:39:19.814Z,51.80
2023-04-21T05:41:51.524Z,49.22
2023-04-21T05:44:26.440Z,51.58
2023-04-21T05:46:57.851Z,48.55
2023-04-21T05:49:29.675Z,45.92
2023-04-21T05:52:24.317Z,46.13
2023-04-21T05:54:57.057Z,45.67
2023-04-21T05:57:28.545Z,49.20
2023-04-21T06:00:02.187Z,51.17
2023-04-21T06:02:39.864Z,48.63
2023-04-21T06:05:23.363Z,45.88
2023-04-21T06:07:55.015Z,49.20
2023-04-21T06:10:26.597Z,49.63
2023-04-21T06:13:21.650Z,53.55
2023-04-21T06:16:02.466Z,46.50
2023-04-21T06:18:54.754Z,52.08
2023-04-21T06:21:26.026Z,41.67
2023-04-21T06:23:58.082Z,46.72
2023-04-21T06:26:51.935Z,40.47
2023-04-21T06:29:24.932Z,43.33
2023-04-21T06:32:18.258Z,50.13
2023-04-21T06:34:50.053Z,50.15
2023-04-21T06:37:22.421Z,50.10
2023-04-21T06:40:14.505Z,47.45
2023-04-21T06:42:47.067Z,46.30
2023-04-21T06:45:18.469Z,47.10
2023-04-21T06:47:50.869Z,42.80
2023-04-21T06:50:22.276Z,50.92
2023-04-21T06:52:53.635Z,50.63
2023-04-21T06:55:27.828Z,48.60
2023-04-21T06:57:59.305Z,48.42
2023-04-21T07:00:30.848Z,53.47
2023-04-21T07:03:02.275Z,48.83
2023-04-21T07:05:39.401Z,52.15
2023-04-21T07:08:10.913Z,50.25
2023-04-21T07:10:45.056Z,54.03
2023-04-21T07:13:36.607Z,55.70
2023-04-21T07:16:32.458Z,77.95
2023-04-21T07:19:04.380Z,69.75
2023-04-21T07:21:55.678Z,65.22
2023-04-21T07:24:27.222Z,63.72
2023-04-21T07:27:02.907Z,57.08
2023-04-21T07:29:34.400Z,59.55
2023-04-21T07:32:05.701Z,59.53
2023-04-21T07:34:39.383Z,56.33
2023-04-21T07:37:30.831Z,78.63
2023-04-21T07:40:02.528Z,58.38
2023-04-21T07:42:35.530Z,59.08
2023-04-21T07:45:08.057Z,59.03
2023-04-21T07:47:39.731Z,65.72
2023-04-21T07:50:12.320Z,61.67
2023-04-21T07:52:45.818Z,46.83
2023-04-21T07:55:17.484Z,57.80
2023-04-21T07:57:51.615Z,54.10
2023-04-21T08:00:23.372Z,53.08
2023-04-21T08:02:56.138Z,54.83
2023-04-21T08:05:31.329Z,51.75
2023-04-21T08:08:03.666Z,56.92
2023-04-21T08:10:55.493Z,49.53
2023-04-21T08:13:29.959Z,38.08
2023-04-21T08:16:02.853Z,53.05
2023-04-21T08:18:34.437Z,50.40
2023-04-21T08:21:26.097Z,50.00
2023-04-21T08:23:59.222Z,51.72
2023-04-21T08:26:31.714Z,51.90
2023-04-21T08:29:23.383Z,42.78
2023-04-21T08:31:54.861Z,53.67
2023-04-21T08:34:48.712Z,53.28
2023-04-21T08:37:22.165Z,52.15
2023-04-21T08:39:55.999Z,50.20
2023-04-21T08:42:27.535Z,52.40
2023-04-21T08:45:00.475Z,52.03
2023-04-21T08:47:53.944Z,51.63
2023-04-21T08:50:29.380Z,57.80
2023-04-21T08:53:02.174Z,37.40
2023-04-21T08:55:37.791Z,52.65
2023-04-21T08:58:10.996Z,50.67
2023-04-21T09:00:43.776Z,52.75
2023-04-21T09:03:25.127Z,55.20
2023-04-21T09:06:07.308Z,55.38
2023-04-21T09:09:00.608Z,49.75
2023-04-21T09:11:36.206Z,44.17
2023-04-21T09:14:08.849Z,47.67
2023-04-21T09:16:40.782Z,56.55
2023-04-21T09:19:20.050Z,53.00
2023-04-21T09:21:51.730Z,54.22
2023-04-21T09:24:26.726Z,53.72
2023-04-21T09:27:35.797Z,50.43
2023-04-21T09:30:31.280Z,39.00
2023-04-21T09:33:13.442Z,48.42
2023-04-21T09:35:54.980Z,45.30
2023-04-21T09:38:26.727Z,51.55
2023-04-21T09:41:01.734Z,55.38
2023-04-21T09:43:33.145Z,52.67
2023-04-21T09:46:14.077Z,50.75
2023-04-21T09:48:47.593Z,45.30
2023-04-21T09:54:02.187Z,37.72
2023-04-21T09:56:39.089Z,48.03
2023-04-21T09:59:12.922Z,56.53
2023-04-21T10:01:50.666Z,56.65
2023-04-21T10:04:25.231Z,53.40
2023-04-21T10:06:58.611Z,58.22
2023-04-21T10:09:37.557Z,56.45
2023-04-21T10:12:10.185Z,54.88
2023-04-21T10:14:42.685Z,55.85
2023-04-21T10:17:34.302Z,56.67
2023-04-21T10:20:12.223Z,54.85
2023-04-21T10:22:47.063Z,60.65
2023-04-21T10:25:21.393Z,58.65
2023-04-21T10:28:12.826Z,54.55
2023-04-21T10:30:48.597Z,50.15
2023-04-21T10:33:20.828Z,50.38
2023-04-21T10:36:09.896Z,61.88
2023-04-21T10:38:46.458Z,58.33
2023-04-21T10:41:31.283Z,68.53
2023-04-21T10:44:26.078Z,36.42
2023-04-21T10:46:58.067Z,40.38
2023-04-21T10:49:34.388Z,59.67
2023-04-21T10:52:07.987Z,60.10
2023-04-21T10:54:48.666Z,52.60
2023-04-21T10:57:23.802Z,68.25
2023-04-21T10:59:56.934Z,62.47
2023-04-21T11:02:33.186Z,37.72
2023-04-21T11:05:15.912Z,62.33
2023-04-21T11:08:16.122Z,62.95
2023-04-21T11:10:53.358Z,67.78
2023-04-21T11:13:46.972Z,58.53
2023-04-21T11:16:43.245Z,57.45
2023-04-21T11:19:37.671Z,54.58
2023-04-21T11:22:28.931Z,62.65
2023-04-21T11:25:01.577Z,56.67
2023-04-21T11:27:34.160Z,67.78
2023-04-21T11:30:10.634Z,61.40
2023-04-21T11:33:07.314Z,59.65
2023-04-21T11:35:44.636Z,59.15
2023-04-21T11:38:22.592Z,66.75
2023-04-21T11:41:14.345Z,65.93
2023-04-21T11:43:50.567Z,64.57
2023-04-21T11:46:29.180Z,75.63
2023-04-21T11:49:07.226Z,57.45
2023-04-21T11:51:45.633Z,52.60
2023-04-21T11:54:38.314Z,63.05
2023-04-21T11:57:11.378Z,60.63
2023-04-21T11:59:45.172Z,68.45
2023-04-21T12:02:49.585Z,64.47
2023-04-21T12:05:26.377Z,58.28
2023-04-21T12:07:59.087Z,40.72
2023-04-21T12:10:32.278Z,63.13
2023-04-21T12:13:05.039Z,71.55
2023-04-21T12:15:57.604Z,46.30
2023-04-21T12:18:36.656Z,68.70
2023-04-21T12:21:12.094Z,59.28
2023-04-21T12:24:04.611Z,59.28
2023-04-21T12:26:56.183Z,61.45
2023-04-21T12:29:28.793Z,41.45
2023-04-21T12:32:00.263Z,56.20
2023-04-21T12:34:31.969Z,60.88
2023-04-21T12:37:03.689Z,50.67
2023-04-21T12:39:45.777Z,53.55
2023-04-21T12:42:31.864Z,56.00
2023-04-21T12:45:04.461Z,56.03
2023-04-21T12:47:46.759Z,51.97
2023-04-21T12:50:18.802Z,49.33
2023-04-21T12:52:54.738Z,60.97
2023-04-21T12:55:37.632Z,57.72
2023-04-21T12:58:11.969Z,56.30
2023-04-21T13:00:49.251Z,55.72
2023-04-21T13:03:25.612Z,51.63
2023-04-21T13:09:22.191Z,46.28
2023-04-21T13:11:56.613Z,53.70
2023-04-21T13:14:28.480Z,45.17
2023-04-21T13:17:11.141Z,40.65
2023-04-21T13:20:08.708Z,46.78
2023-04-21T13:22:41.375Z,51.25
2023-04-21T13:25:19.309Z,38.40
2023-04-21T13:28:12.919Z,50.22
2023-04-21T13:31:05.948Z,41.73
2023-04-21T13:33:44.936Z,42.25
2023-04-21T13:36:17.945Z,38.15
2023-04-21T13:39:33.861Z,36.75
2023-04-21T13:42:07.868Z,37.33
2023-04-21T13:45:04.826Z,42.17
2023-04-21T13:47:55.944Z,31.65
2023-04-21T13:50:48.578Z,31.17
2023-04-21T13:53:22.854Z,30.13
2023-04-21T13:56:48.152Z,33.53
2023-04-21T13:59:41.364Z,34.53
2023-04-21T14:02:21.941Z,29.77
2023-04-21T14:05:15.283Z,37.60
2023-04-21T14:08:10.418Z,31.25
2023-04-21T14:11:01.845Z,57.97
2023-04-21T14:13:44.667Z,37.05
2023-04-21T14:16:46.431Z,68.43
2023-04-21T14:19:20.604Z,34.95
2023-04-21T14:21:57.120Z,46.28
2023-04-21T14:24:30.773Z,26.30
2023-04-21T14:27:07.348Z,30.40
2023-04-21T14:29:38.890Z,35.47
2023-04-21T14:32:34.200Z,27.65
2023-04-21T14:35:12.845Z,50.33
2023-04-21T14:37:45.203Z,23.75
2023-04-21T14:40:37.890Z,29.20
2023-04-21T14:43:28.996Z,29.00
2023-04-21T14:46:03.984Z,45.42
2023-04-21T14:48:35.855Z,22.98
2023-04-21T14:51:10.870Z,24.15
2023-04-21T14:53:53.231Z,36.38
2023-04-21T14:57:10.590Z,18.40
2023-04-21T14:59:56.596Z,17.10
2023-04-21T15:02:34.466Z,27.25
2023-04-21T15:05:06.437Z,34.60
2023-04-21T15:07:46.195Z,22.70
2023-04-21T15:10:40.606Z,19.13
2023-04-21T15:13:53.867Z,14.98
2023-04-21T15:16:26.886Z,20.05
2023-04-21T15:19:02.680Z,17.15
2023-04-21T15:21:39.958Z,12.43
2023-04-21T15:24:15.560Z,13.82
2023-04-21T15:26:51.211Z,11.85
2023-04-21T15:29:23.214Z,12.82
2023-04-21T15:32:15.362Z,13.15
2023-04-21T15:35:26.074Z,18.23
2023-04-21T15:38:18.532Z,20.20
2023-04-21T15:41:01.290Z,10.30
2023-04-21T15:43:34.677Z,13.77
2023-04-21T15:46:14.584Z,11.80
2023-04-21T15:48:48.033Z,12.20
2023-04-21T15:51:23.608Z,12.38
2023-04-21T15:53:57.868Z,11.88
2023-04-21T15:56:29.650Z,12.95
2023-04-21T15:59:11.903Z,12.82
2023-04-21T16:01:53.479Z,11.07
2023-04-21T16:04:25.841Z,10.32
2023-04-21T16:06:57.805Z,14.45
2023-04-21T16:09:29.871Z,11.23
2023-04-21T16:12:18.109Z,12.23
2023-04-21T16:15:23.785Z,9.75
2023-04-21T16:17:56.671Z,11.20
2023-04-21T16:20:53.875Z,13.55
2023-04-21T16:23:26.904Z,12.13
2023-04-21T16:25:58.620Z,8.70
2023-04-21T16:28:50.694Z,13.05
2023-04-21T16:31:22.809Z,9.30
2023-04-21T16:34:01.094Z,10.38
2023-04-21T16:37:04.018Z,9.82
2023-04-21T16:39:44.677Z,9.73
2023-04-21T16:42:16.838Z,10.50
2023-04-21T16:45:12.294Z,10.43
2023-04-21T16:47:43.675Z,12.32
2023-04-21T16:50:15.050Z,9.30
2023-04-21T16:52:51.569Z,8.60
2023-04-21T16:55:24.112Z,10.68
2023-04-21T16:57:58.755Z,9.43
2023-04-21T17:00:34.226Z,13.02
2023-04-21T17:03:30.802Z,9.57
2023-04-21T17:06:13.692Z,10.88
2023-04-21T17:08:45.544Z,14.43
2023-04-21T17:11:39.954Z,10.57
2023-04-21T17:14:34.043Z,13.70
2023-04-21T17:17:05.377Z,10.40
2023-04-21T17:19:37.238Z,11.55
2023-04-21T17:22:09.621Z,11.88
2023-04-21T17:25:00.887Z,14.77
2023-04-21T17:27:34.031Z,13.15
2023-04-21T17:30:11.059Z,11.93
2023-04-21T17:33:15.569Z,11.63
2023-04-21T17:36:02.177Z,11.45
2023-04-21T17:38:36.126Z,12.60
2023-04-21T17:41:09.167Z,11.05
2023-04-21T17:43:43.356Z,12.87
2023-04-21T17:46:15.497Z,10.95
2023-04-21T17:48:47.319Z,11.75
2023-04-21T17:51:38.937Z,14.15
2023-04-21T17:54:11.369Z,13.45
2023-04-21T17:56:47.831Z,10.73
2023-04-21T17:59:19.168Z,12.73
2023-04-21T18:01:51.626Z,11.73
2023-04-21T18:04:27.834Z,13.40
2023-04-21T18:07:00.554Z,11.20
2023-04-21T18:09:39.108Z,12.65
2023-04-21T18:12:10.416Z,12.82
2023-04-21T18:14:42.362Z,13.40
2023-04-21T18:17:16.016Z,13.25
2023-04-21T18:19:48.947Z,12.65
2023-04-21T18:22:20.515Z,12.18
2023-04-21T18:24:54.988Z,12.45
2023-04-21T18:27:26.533Z,11.55
2023-04-21T18:29:58.161Z,11.93
2023-04-21T18:32:29.562Z,13.13
2023-04-21T18:35:01.323Z,15.95
2023-04-21T18:37:33.782Z,15.07
2023-04-21T18:40:07.089Z,13.68
2023-04-21T18:42:41.026Z,13.75
2023-04-21T18:45:12.701Z,13.60
2023-04-21T18:47:44.378Z,14.05
2023-04-21T18:50:15.884Z,13.60
2023-04-21T18:52:47.503Z,12.52
2023-04-21T18:55:28.975Z,14.80
2023-04-21T18:58:00.403Z,12.90
2023-04-21T19:00:33.295Z,13.57
2023-04-21T19:03:05.880Z,13.90
2023-04-21T19:05:39.150Z,18.63
2023-04-21T19:08:11.683Z,14.68
2023-04-21T19:10:44.303Z,16.20
2023-04-21T19:13:17.519Z,13.30
2023-04-21T19:15:48.960Z,13.75
2023-04-21T19:18:20.659Z,16.17
2023-04-21T19:20:51.853Z,14.38
2023-04-21T19:23:23.861Z,15.00
2023-04-21T19:25:57.983Z,15.00
2023-04-21T19:28:29.518Z,13.73
2023-04-21T19:31:01.076Z,16.80
2023-04-21T19:33:33.243Z,14.95
2023-04-21T19:36:05.676Z,14.43
2023-04-21T19:38:37.786Z,17.15
2023-04-21T19:41:09.290Z,16.50
2023-04-21T19:43:41.762Z,12.35
2023-04-21T19:46:13.093Z,16.45
2023-04-21T19:48:44.567Z,12.95
2023-04-21T19:51:15.894Z,16.27
2023-04-21T19:53:51.400Z,16.92
2023-04-21T19:56:32.648Z,15.30
2023-04-21T19:59:05.029Z,16.50
2023-04-21T20:01:36.838Z,18.98
2023-04-21T20:04:11.873Z,16.92
2023-04-21T20:06:43.847Z,14.82
2023-04-21T20:09:15.257Z,13.27
2023-04-21T20:11:46.775Z,15.20
2023-04-21T20:14:19.819Z,12.95
2023-04-21T20:16:51.306Z,20.80
2023-04-21T20:19:24.360Z,15.82
2023-04-21T20:21:55.798Z,18.50
2023-04-21T20:24:27.203Z,17.30
2023-04-21T20:26:58.485Z,13.43
2023-04-21T20:29:30.101Z,17.50
2023-04-21T20:32:01.667Z,18.38
2023-04-21T20:34:33.006Z,17.98
2023-04-21T20:37:05.847Z,17.52
2023-04-21T20:39:37.635Z,24.40
2023-04-21T20:42:13.614Z,13.32
2023-04-21T20:44:46.747Z,15.35
2023-04-21T20:47:19.281Z,17.15
2023-04-21T20:49:50.758Z,16.88
2023-04-21T20:52:22.581Z,15.15
2023-04-21T20:54:54.020Z,15.27
2023-04-21T20:57:28.533Z,17.67
2023-04-21T20:59:59.995Z,16.73
2023-04-21T21:02:31.344Z,15.70
2023-04-21T21:05:02.743Z,14.90
2023-04-21T21:07:35.589Z,12.73
2023-04-21T21:10:07.361Z,18.02
2023-04-21T21:12:38.662Z,19.33
2023-04-21T21:15:11.691Z,16.85
2023-04-21T21:17:43.227Z,19.40
2023-04-21T21:20:14.824Z,13.77
2023-04-21T21:22:46.034Z,16.23
2023-04-21T21:25:17.566Z,17.42
2023-04-21T21:27:49.228Z,19.20
2023-04-21T21:30:20.911Z,16.75
2023-04-21T21:32:52.710Z,17.30
2023-04-21T21:35:24.057Z,18.10
2023-04-21T21:37:55.432Z,14.80
2023-04-21T21:40:27.107Z,20.35
2023-04-21T21:42:58.575Z,19.02
2023-04-21T21:45:30.393Z,19.02
2023-04-21T21:48:02.163Z,18.95
2023-04-21T21:50:33.411Z,18.02
2023-04-21T21:53:04.843Z,16.13
2023-04-21T21:55:36.235Z,19.00
2023-04-21T21:58:07.743Z,17.90
2023-04-21T22:00:39.620Z,13.07
2023-04-21T22:03:11.359Z,14.10
2023-04-21T22:05:43.067Z,15.00
2023-04-21T22:08:14.661Z,19.77
2023-04-21T22:10:46.688Z,19.38
2023-04-21T22:13:18.222Z,19.02
2023-04-21T22:15:49.562Z,17.63
2023-04-21T22:18:21.042Z,14.95
2023-04-21T22:20:52.557Z,82.38
2023-04-21T22:23:23.939Z,23.13
2023-04-21T22:25:55.393Z,15.85
2023-04-21T22:28:26.676Z,18.00
2023-04-21T22:30:57.922Z,13.52
2023-04-21T22:33:29.155Z,18.52
2023-04-21T22:36:00.750Z,16.58
2023-04-21T22:38:32.388Z,20.20
2023-04-21T22:41:03.715Z,17.42
2023-04-21T22:43:35.584Z,16.77
2023-04-21T22:46:07.953Z,15.82
2023-04-21T22:48:40.092Z,200.98
2023-04-21T22:51:12.017Z,26.65
2023-04-21T22:53:43.610Z,20.98
2023-04-21T22:56:15.962Z,14.65
2023-04-21T22:58:47.393Z,20.38
2023-04-21T23:01:18.849Z,17.50
2023-04-21T23:03:50.524Z,19.77
2023-04-21T23:06:21.982Z,21.35
2023-04-21T23:08:53.472Z,22.38
2023-04-21T23:11:25.061Z,20.90
2023-04-21T23:13:56.624Z,20.77
2023-04-21T23:16:28.406Z,19.50
2023-04-21T23:18:59.830Z,22.13
2023-04-21T23:21:31.073Z,18.48
2023-04-21T23:24:02.426Z,21.33
2023-04-21T23:26:33.826Z,19.40
2023-04-21T23:29:05.366Z,21.33
2023-04-21T23:31:36.805Z,19.35
2023-04-21T23:34:08.683Z,25.35
2023-04-21T23:36:45.440Z,20.63
2023-04-21T23:39:16.994Z,22.60
2023-04-21T23:41:48.492Z,23.85
2023-04-21T23:44:20.076Z,30.90
2023-04-21T23:46:51.507Z,23.17
2023-04-21T23:49:23.569Z,21.40
2023-04-21T23:51:54.761Z,24.00
2023-04-21T23:54:26.278Z,24.50
2023-04-21T23:57:01.505Z,27.30
2023-04-21T23:59:32.831Z,20.52
